METAR Data
IDs: Format: Raw Decoded Include TAF

Data at: 1101 UTC 11 May 2021

LIBA 110955Z 09009KT CAVOK 26/13 Q1012 RMK SKC VIS MIN 9999 WIND THR11 09009KT WIND THR29 /////KT BLU

TAF LIBA 110800Z 1109/1118 10012KT CAVOK

LIBC 110950Z 20011KT CAVOK 20/16 Q1015

TAF LIBC 110711Z 1107/1206 VRB05KT 7000 SCT020
  BECMG 1108/1110 20010KT
  BECMG 1118/1120 VRB05KT


LIBD 111050Z 07010KT CAVOK 24/10 Q1012

TAF LIBD 110500Z 1106/1206 VRB05KT CAVOK
  BECMG 1106/1108 10010KT
  BECMG 1116/1118 18008KT


LIBF 110950Z 14005KT 090V200 CAVOK 28/09 Q1012
No TAF found for LIBF

LIBG 110950Z 16005KT CAVOK 23/16 Q1014

TAF LIBG 110800Z 1109/1118 18010KT 9000 SCT020
  BECMG 1116/1118 VRB05KT


LIBP 111050Z AUTO 06009KT 030V100 9999 NCD 22/16 Q1012

TAF LIBP 110500Z 1106/1206 VRB05KT CAVOK
  BECMG 1108/1110 07010KT
  BECMG 1114/1116 26012KT


No METAR found for LIBR
No TAF found for LIBR

LIBV 110955Z 16010KT CAVOK 23/08 Q1014 RMK SKC VIS MIN 9999 WIND THR32 18009KT WIND THR14 17010KT BLU

TAF LIBV 110800Z 1109/1118 18012KT CAVOK
  BECMG 1116/1118 6000 SCT010


LICA 111050Z AUTO 25007KT 220V280 9999 NCD 24/17 Q1013

TAF LICA 110500Z 1106/1206 06008KT 9999 FEW020
  BECMG 1108/1110 27010KT
  BECMG 1116/1118 VRB05KT


LICC 111050Z 12012KT CAVOK 24/16 Q1014

TAF LICC 110500Z 1106/1206 VRB05KT 9999 FEW020
  BECMG 1108/1110 08012KT
  BECMG 1119/1121 VRB05KT


LICD 111050Z AUTO 09004KT 030V150 9999 NCD 21/20 Q1013

TAF LICD 110500Z 1106/1206 14015KT 9999 FEW030
  BECMG 1110/1112 36015KT


LICG 110950Z 29006KT 9999 SCT010 19/16 Q1017

TAF AMD LICG 111057Z 1109/1118 34014KT 9999 FEW040

LICJ 111050Z 03007KT CAVOK 21/16 Q1014

TAF LICJ 110500Z 1106/1206 19007KT CAVOK
  BECMG 1108/1110 27014KT


LICR 111050Z AUTO 21013KT 9999 NCD 22/15 Q1015

TAF LICR 110500Z 1106/1206 18010KT CAVOK
  BECMG 1116/1118 36012KT


LICT 110955Z 22016KT CAVOK 23/12 Q1014 RMK FEW FEW100 VIS MIN 9999 WIND THR13 23016KT BLU

TAF LICT 110800Z 1109/1118 20017KT CAVOK
  BECMG 1114/1116 29013KT 9999 SCT015
  PROB40
  TEMPO 1115/1118 RA


LICZ 110955Z 25003KT CAVOK 24/05 Q1015 RMK SKC VIS MIN 9999 WIND THR28 03002KT WIND THR10 16005KT A2998 BLU

TAF LICZ 110500Z 1106/1206 VRB03KT 8000 SCT120
  BECMG 1110/1112 06011KT CAVOK
  BECMG 1117/1119 27009KT


LIEA 111050Z 22017KT 9999 SCT025 20/16 Q1013

TAF LIEA 110500Z 1106/1206 06007KT 9999 SCT030
  TEMPO 1106/1108 TSRA
  BECMG 1107/1109 26016G26KT
  TEMPO 1108/1116 SHRA


LIEE 111050Z AUTO 30011KT 9999 FEW044/// BKN099/// 19/12 Q1015

TAF LIEE 110500Z 1106/1206 VRB06KT 9999 SCT030
  BECMG 1108/1110 32015KT
  TEMPO 1107/1114 4000 SHRA


LIED 111020Z 24015KT 9000 FEW010 FEW020CB BKN030 18/15 Q1014 RETS RMK BKN VIS MIN 9000 WIND THR35 24014KT WIND THR17 24013KT BLU

TAF LIED 110800Z 1109/1118 24015KT 9999 FEW020 SCT025 BKN060
  TEMPO 1110/1113 5000 RS FEW020CB SCT020


LIEO 111050Z 26008KT 230V290 8000 -RA SCT025 BKN055 17/14 Q1013

TAF LIEO 110500Z 1106/1206 VRB05KT 9999 SCT030
  TEMPO 1106/1116 SHRA
  BECMG 1109/1111 23015G25KT


LIPR 111050Z 10010KT CAVOK 20/15 Q1011

TAF LIPR 110800Z 1109/1118 11010KT CAVOK
  TEMPO 1112/1118 RA


LIPY 111050Z AUTO 05008KT 9999 FEW130/// 24/13 Q1011

TAF LIPY 110500Z 1106/1206 VRB05KT CAVOK
  BECMG 1107/1109 10010KT
  TEMPO 1115/1124 4000 SHRA BKN010
  BECMG 1117/1120 24012KT


LIRA 111050Z 21015KT CAVOK 24/11 Q1013

TAF LIRA 110500Z 1106/1206 VRB05KT 9999 FEW030
  TEMPO 1106/1115 SHRA
  BECMG 1109/1111 20010KT
  BECMG 1118/1120 27010KT


LIRE 110955Z 18015KT CAVOK 23/16 Q1013 RMK SCT SCT080 VIS MIN 9999 WIND THR13 19014KT WIND THR31 /////KT BLU

TAF LIRE 110800Z 1109/1118 16011KT 9999 SCT030
  TEMPO 1114/1118 RA BKN020
  BECMG 1113/1115 27008KT


LIRF 111050Z 21011KT CAVOK 23/14 Q1013 NOSIG

TAF COR LIRF 110658Z 1106/1212 14008KT 9999 FEW030
  BECMG 1108/1110 20014KT
  TEMPO 1112/1122 SHRA
  BECMG 1122/1201 27014KT


LIRG 110955Z 16010KT CAVOK 25/11 Q1013 RMK BKN BKN090 MON NE LIB NC VIS MIN 9999 BLU

TAF LIRG 110800Z 1109/1118 13006KT 9999 SCT040
  BECMG 1109/1111 20015KT SCT020 BKN040
  TEMPO 1112/1116 5000 RA BKN020


LIRH 110955Z 15008KT 9999 SCT035 23/13 Q1014 RMK BKN SCT180 MON LIB NC VIS MIN 9999 WIND THR16 17007KT BLU

TAF LIRH 110800Z 1109/1118 16006KT 9999 SCT040
  TEMPO 1112/1116 20012KT
  BECMG 1115/1117 BKN035


LIRL 110955Z 17008KT 9999 FEW060 26/14 Q1013 RMK FEW MON LIB NC VIS MIN 9999 WIND THR12 /////KT WIND THR30 16009KT BLU

TAF LIRL 110800Z 1109/1118 16007KT 9999 FEW035
  BECMG 1111/1113 22012KT SCT020 SCT060
  TEMPO 1113/1117 RA BKN020


LIRM 110955Z /////KT 9999 FEW025 SCT080 27/M00 Q1013 RMK BKN VIS MIN 9999 WIND THR06 320002KT BLU

TAF LIRM 110800Z 1109/1118 24010KT 9999 FEW025 SCT070

LIRN 111050Z 19007KT 150V230 CAVOK 25/12 Q1013 NOSIG

TAF LIRN 110500Z 1106/1206 VRB05KT 9999 FEW030
  BECMG 1109/1111 24012KT


LIRP 111045Z 11009KT 5000 -RA BR FEW013 SCT020 BKN040 15/14 Q1011 NOSIG

TAF LIRP 110500Z 1106/1206 12007KT 9999 SCT020 BKN060
  TEMPO 1106/1110 6000 RA
  TEMPO 1110/1112 15015G25KT 3000 TSRA FEW010CB BKN030
  BECMG 1114/1116 15010KT
  TEMPO 1116/1122 15015G25KT 3000 TSRA FEW015CB SCT030
  BECMG 1200/1202 21012KT SCT050


LIRQ 111050Z 31007KT 9999 -RA SCT050 17/15 Q1012

TAF LIRQ 110500Z 1106/1206 VRB05KT 9999 FEW040
  BECMG 1109/1111 23010KT
  TEMPO 1110/1118 SHRA
  BECMG 1118/1120 VRB05KT


LIRS 110955Z 15009KT 9999 -RA FEW025 19/17 Q1011 RMK OVC BKN080 VIS MIN 9999 WIND THR03 15009KT WIND THR21 116008KT BLU

TAF LIRS 110800Z 1109/1118 16010KT 9999 SCT025
  TEMPO 1109/1115 18015G25KT
  TEMPO 1110/1118 RA BKN015 FEW018CB
  TEMPO 1115/1118 5000 TSRA


LIRZ 111050Z AUTO 21011KT 180V240 9999 NCD 25/11 Q1011

TAF LIRZ 110500Z 1106/1206 VRB05KT 9999 FEW030
  BECMG 1107/1109 19010KT
  TEMPO 1114/1124 SHRA


LMML 111045Z 13019KT CAVOK 23/15 Q1014 NOSIG

TAF LMML 111100Z 1112/1212 13017KT 9999 FEW012
  BECMG 1116/1119 04007KT
  TEMPO 1118/1205 8000 BKN008
  PROB40 1119/1202 5000 BR BKN005
  PROB30
  TEMPO 1120/1201 0800 FG BKN001
  BECMG 1122/1201 33012KT
  BECMG 1203/1206 33022G32KT
  BECMG 1212/1215 30020G30KT


DTTA 111030Z 31009KT 270V350 9999 SCT020 BKN030 23/12 Q1015

TAF DTTA 110500Z 1106/1206 34008KT 9999 FEW026
  TEMPO 1115/1118 32019G29KT
  PROB40
  TEMPO 1118/1124 33038G48KT 4000 SQ
  BECMG 1200/1202 33019KT


DTTJ 111030Z 02020KT 8000 NSC 23/17 Q1011 NOSIG

TAF DTTJ 110500Z 1106/1206 04005KT 8000 NSC
  BECMG 1109/1111 04015KT
  TEMPO 1113/1201 02025G39KT SQ 4000